Airfield :
LOGIN :

Register | Disclaimer

   EN    FR    IT 

 










Legend :    VFR   Marginal VFR   IFR   Intensive IFR   Very Intensive IFR
Visi :
Ceiling :
>= 8 km
>= 3000ft
5 to 8 km
1000 to 3000 ft
1500m to 5 km
500 to 1000 ft
800 to 1500m
200 to 500 ft
< 800m
< 200 ft
Symbols :   Thunderstorms  Fog  Heavy snow  Heavy precipitations  Wind > 20 kt
SIGMETs :     Misc.  Thunderstorms  Icing  Turbulence  Mountain Waves  Volcanic Ashes







- Airport Elevation : 526 ft
- IATA code : LTN
- Download approach charts


EGGW - London Luton

CURRENT METAR :
  • 200720Z AUTO 27010KT 9999 NCD 13/11 Q1023

EXPIRED METARs :
  • 200650Z AUTO 27009KT 9999 NCD 12/11 Q1022
  • 200620Z AUTO 27008KT 9999 NCD 11/10 Q1022
  • 200550Z AUTO 26008KT 9999 NCD 10/10 Q1022
  • 200520Z AUTO 26009KT 9999 NCD 10/09 Q1022
  • 200450Z AUTO 26009KT 9999 NCD 10/09 Q1021

TAF TAF EGGW
Valid from the 20 at 06:00 until the 21 at 06:00 UTC


200453Z 2006/2106 26008KT 9999 FEW045
BECMG 2016/2019 20010KT
BECMG 2021/2024 13005KT
PROB40
TEMPO 2021/2024 7000 RA BKN007
BECMG 2100/2103 3000 BR BKN003
TEMPO 2100/2106 RADZ
BECMG 2103/2106 0700 FG BKN001
ATIS : +44 1582 395 204
No reported NOTAMs for that airfield.



MET'MAP, your aeronautical weather chart ! - Copyright ORBIFLY December 2007 - Disclaimer

ORBIFLY MET'MAP TEAM :

Programming & Development : Alexandra Zaïnal
Concept & Development : Baudouin d'Aumeries
Co-Development & Prog : Marc-Olivier Méhu
Technical & hardware support : Manuel Goepfert

Contact : metmap@orbifly.com




SOURCES & CREDITS :

   NOAA